KSLB

Storm Lake Municipal Airport

Storm Lake, Iowa, USA
METAR KSLB 182335Z AUTO 17005KT 10SM CLR 24/19 A3000 RMK AO2
Observed Flight Rules
Aug-18 @ 23:35 UTC (11 minutes ago) Visual Flight Rules
Wind Visibility Clouds
170° at 5 knots 10 miles
  • Clear skies
Temperatures Readings
Current 24°C / 75°F
Dewpoint 19°C / 66°F
Humidity 74%
Altimeter 30" Hg
Pressure 1016 hPa
Elevation 454
METAR KSLB 182335Z AUTO 17005KT 10SM CLR 24/19 A3000 RMK AO2
Observed Flight Rules
Aug-18 @ 23:35 UTC
(11 minutes ago)
VFR
Wind Visibility
170° at 5 knots 10 miles
Clouds
  • Clear skies
Temperature Dewpoint
24°C / 75°F 19°C / 66°F
Humidity Altimeter Pressure
74% 30" Hg 1016 hPa